Time;durP1;ratioP1;P1;durP2;ratioP2;P2;SDS_P1;SDS_P2;PMS_P1;PMS_P2;Temp;Humidity;BMP_temperature;BMP_pressure;BME280_temperature;BME280_humidity;BME280_pressure;Samples;Min_cycle;Max_cycle;Signal;HPM_P1;HPM_P2
2023/03/29 00:00:15;;;;;;;;;12.00;9.67;;;;;12.07;50.06;101246.84;5025149;28;45684;-76
2023/03/29 00:02:46;;;;;;;;;9.67;9.67;;;;;12.49;50.22;101306.84;5022778;28;45491;-76
2023/03/29 00:05:14;;;;;;;;;10.67;10.67;;;;;12.52;50.10;101299.53;5039485;28;45534;-75
2023/03/29 00:07:40;;;;;;;;;9.67;9.67;;;;;12.13;50.06;101233.78;5042997;28;47922;-75
2023/03/29 00:10:06;;;;;;;;;10.33;10.33;;;;;12.59;49.57;101303.31;5058444;28;45639;-76
2023/03/29 00:12:32;;;;;;;;;10.00;10.00;;;;;11.70;49.60;101143.63;5057552;28;45304;-73
2023/03/29 00:14:57;;;;;;;;;11.00;11.00;;;;;12.57;49.85;101292.78;5054532;28;45314;-75
2023/03/29 00:17:23;;;;;;;;;11.00;10.00;;;;;12.00;49.57;101192.41;5053117;28;47701;-79
2023/03/29 00:19:48;;;;;;;;;13.00;12.00;;;;;12.55;50.07;101292.09;5051732;28;45500;-76
2023/03/29 00:22:14;;;;;;;;;9.67;9.67;;;;;11.69;50.28;101141.94;5026138;28;45348;-75
2023/03/29 00:24:39;;;;;;;;;11.00;10.33;;;;;12.19;49.90;101233.19;5055039;28;45294;-75
2023/03/29 00:27:05;;;;;;;;;11.33;10.33;;;;;11.59;49.45;101138.44;5052044;28;46482;-76
2023/03/29 00:29:31;;;;;;;;;12.33;12.00;;;;;12.47;49.69;101270.63;5035911;28;45493;-77
2023/03/29 00:31:56;;;;;;;;;12.33;11.67;;;;;12.33;49.86;101242.59;5033574;28;45543;-76
2023/03/29 00:34:25;;;;;;;;;12.67;12.00;;;;;12.48;50.15;101272.31;5046130;28;45535;-75
2023/03/29 00:36:51;;;;;;;;;11.33;11.33;;;;;12.48;49.91;101272.31;5037534;28;47588;-76
2023/03/29 00:39:19;;;;;;;;;9.67;9.00;;;;;12.47;50.32;101276.81;5049059;28;45526;-74
2023/03/29 00:41:49;;;;;;;;;14.00;13.00;;;;;12.53;50.16;101269.22;5051305;28;45487;-75
2023/03/29 00:44:52;;;;;;;;;18.00;15.33;;;;;12.60;49.69;101281.81;5038311;28;45349;-75
2023/03/29 00:47:23;;;;;;;;;13.33;12.00;;;;;12.66;49.64;101283.94;5048953;28;45440;-75
2023/03/29 00:49:51;;;;;;;;;12.33;12.00;;;;;12.64;49.93;101282.41;5047984;28;45425;-75
2023/03/29 00:52:23;;;;;;;;;11.67;11.00;;;;;12.64;49.89;101282.41;5055446;28;45381;-77
2023/03/29 00:54:51;;;;;;;;;11.00;11.00;;;;;12.69;49.91;101285.47;5056329;28;45590;-76
2023/03/29 00:57:19;;;;;;;;;10.33;9.00;;;;;12.64;49.87;101283.25;5055396;28;46448;-76
2023/03/29 00:59:46;;;;;;;;;16.00;14.67;;;;;11.87;49.77;101142.09;5054412;28;45433;-73
2023/03/29 01:02:13;;;;;;;;;13.00;12.00;;;;;12.74;49.48;101285.88;5044988;28;45523;-79
2023/03/29 01:04:48;;;;;;;;;10.00;10.00;;;;;11.78;50.01;101138.44;5050078;28;45629;-76
2023/03/29 01:07:29;;;;;;;;;12.33;12.33;;;;;12.62;49.79;101247.03;5049364;28;46478;-77
2023/03/29 01:10:05;;;;;;;;;11.33;11.33;;;;;12.69;49.65;101280.13;5038018;28;45544;-79
2023/03/29 01:12:34;;;;;;;;;14.00;13.67;;;;;12.63;50.08;101268.22;5057047;28;45226;-77
2023/03/29 01:15:12;;;;;;;;;11.67;11.67;;;;;12.65;50.16;101273.41;5056363;28;45312;-74
2023/03/29 01:17:40;;;;;;;;;10.00;10.00;;;;;12.54;50.28;101253.06;5055316;28;45894;-77
2023/03/29 01:20:14;;;;;;;;;12.00;11.67;;;;;11.83;49.96;101128.22;5034478;28;46360;-74
2023/03/29 01:23:07;;;;;;;;;7.00;7.00;;;;;12.59;49.86;101263.28;5039543;28;45369;-75
2023/03/29 01:25:47;;;;;;;;;11.00;11.00;;;;;12.71;50.21;101256.81;5023823;28;45326;-76
2023/03/29 01:28:28;;;;;;;;;13.00;11.67;;;;;12.43;50.06;101210.59;5038144;28;46513;-77
2023/03/29 01:31:02;;;;;;;;;14.33;12.00;;;;;12.65;50.13;101244.06;5054469;28;45973;-76
2023/03/29 01:33:33;;;;;;;;;11.00;10.00;;;;;12.42;50.27;101228.41;5055217;28;45452;-77
2023/03/29 01:36:25;;;;;;;;;13.00;11.00;;;;;12.55;50.10;101241.41;5055150;28;45188;-75
2023/03/29 01:38:58;;;;;;;;;10.00;9.67;;;;;12.53;50.49;101248.72;5055421;28;45680;-75
2023/03/29 01:41:36;;;;;;;;;1.00;1.00;;;;;12.46;50.41;101242.28;5051506;28;45437;-77
2023/03/29 01:44:08;;;;;;;;;13.33;12.00;;;;;12.43;50.30;101243.41;5074961;28;45215;-79
2023/03/29 01:47:01;;;;;;;;;13.33;13.00;;;;;12.31;50.51;101215.22;5058733;28;45467;-75
2023/03/29 01:49:40;;;;;;;;;9.33;9.33;;;;;12.53;50.29;101247.88;5060438;28;47382;-76
2023/03/29 01:52:33;;;;;;;;;10.67;9.67;;;;;12.48;50.54;101241.16;5062221;28;45473;-75
2023/03/29 01:55:08;;;;;;;;;11.00;11.00;;;;;12.49;50.70;101253.50;5024296;28;46890;-75
2023/03/29 01:57:38;;;;;;;;;14.00;11.00;;;;;12.40;51.30;101246.34;5052568;28;45603;-73
2023/03/29 02:00:08;;;;;;;;;13.33;12.33;;;;;12.48;50.77;101251.81;5029358;28;47871;-74
2023/03/29 02:02:36;;;;;;;;;13.00;12.33;;;;;12.27;50.93;101211.19;5039885;28;45394;-74
2023/03/29 02:05:02;;;;;;;;;12.67;11.00;;;;;12.17;50.97;101205.00;5044147;28;45528;-75
2023/03/29 02:07:30;;;;;;;;;13.00;12.00;;;;;11.74;51.03;101142.34;5058986;28;45484;-76
2023/03/29 02:09:57;;;;;;;;;10.33;8.00;;;;;12.41;51.33;101237.41;5043260;28;47632;-75
2023/03/29 02:12:23;;;;;;;;;11.33;9.33;;;;;12.50;51.08;101254.34;5051193;28;45544;-75
2023/03/29 02:14:48;;;;;;;;;12.33;10.33;;;;;11.59;51.11;101099.31;5026330;28;45336;-75
2023/03/29 02:17:18;;;;;;;;;12.00;12.00;;;;;12.44;51.38;101239.78;5059583;28;45399;-75
2023/03/29 02:19:50;;;;;;;;;9.33;9.33;;;;;12.45;51.52;101252.13;5047763;28;46331;-75
2023/03/29 02:22:22;;;;;;;;;10.00;10.00;;;;;12.46;51.40;101248.47;5057924;28;45470;-75
2023/03/29 02:24:52;;;;;;;;;11.00;10.33;;;;;12.39;51.64;101236.66;5038685;28;45781;-75
2023/03/29 02:27:17;;;;;;;;;15.67;13.00;;;;;12.06;51.05;101170.53;5029899;28;45590;-74
2023/03/29 02:29:45;;;;;;;;;10.33;8.00;;;;;12.51;51.63;101228.50;5057298;28;45403;-76
2023/03/29 02:32:13;;;;;;;;;10.00;10.00;;;;;11.72;51.32;101083.06;5025495;28;45580;-76
2023/03/29 02:34:49;;;;;;;;;10.67;9.00;;;;;12.56;51.24;101227.09;5056555;28;45460;-75
2023/03/29 02:37:17;;;;;;;;;9.67;9.67;;;;;12.24;51.54;101163.47;5059541;28;45472;-76
2023/03/29 02:39:46;;;;;;;;;15.33;12.67;;;;;11.72;51.48;101088.38;5058478;28;45663;-74
2023/03/29 02:42:15;;;;;;;;;12.33;8.67;;;;;11.96;51.67;101132.38;5039879;28;45575;-75
2023/03/29 02:44:44;;;;;;;;;11.00;11.00;;;;;12.38;51.71;101189.66;5040061;28;45376;-75
2023/03/29 02:47:17;;;;;;;;;10.33;9.67;;;;;12.13;51.54;101139.66;5047544;28;45442;-75
2023/03/29 02:49:43;;;;;;;;;8.00;8.00;;;;;12.52;51.46;101208.84;5035415;28;47403;-75
2023/03/29 02:52:15;;;;;;;;;12.00;12.00;;;;;12.10;51.79;101129.28;5054611;28;45251;-76
2023/03/29 02:54:44;;;;;;;;;10.00;9.00;;;;;12.54;51.58;101206.88;5036510;28;45462;-78
2023/03/29 02:57:11;;;;;;;;;10.00;10.00;;;;;12.52;52.16;101208.84;5024560;28;45500;-75
2023/03/29 02:59:37;;;;;;;;;12.67;12.00;;;;;11.71;51.70;101068.06;5040605;28;47727;-75
2023/03/29 03:02:04;;;;;;;;;13.33;12.67;;;;;12.50;51.82;101190.34;5039587;28;45530;-78
2023/03/29 03:04:30;;;;;;;;;9.67;9.67;;;;;12.08;52.08;101126.75;5048440;28;45340;-75
2023/03/29 03:06:55;;;;;;;;;11.67;11.67;;;;;12.30;52.36;101178.88;5057638;28;45436;-75
2023/03/29 03:09:21;;;;;;;;;12.33;12.33;;;;;12.10;52.61;101124.78;5056699;28;46370;-76
2023/03/29 03:11:46;;;;;;;;;10.67;10.67;;;;;12.45;52.50;101204.13;5053095;28;45949;-75
2023/03/29 03:14:11;;;;;;;;;12.67;11.33;;;;;12.32;52.39;101162.75;5058616;28;45396;-76
2023/03/29 03:16:37;;;;;;;;;9.00;9.00;;;;;12.24;52.37;101160.81;5058870;28;45404;-75
2023/03/29 03:19:03;;;;;;;;;11.00;11.00;;;;;12.16;52.34;101137.53;5051152;28;46305;-75
2023/03/29 03:21:28;;;;;;;;;11.00;11.00;;;;;12.16;52.80;101161.50;5043101;28;45223;-75
2023/03/29 03:23:54;;;;;;;;;12.00;11.00;;;;;12.51;52.47;101197.34;5059302;28;45357;-74
2023/03/29 03:26:20;;;;;;;;;10.67;10.00;;;;;10.32;53.01;100835.34;5042719;28;45483;-75
2023/03/29 03:28:46;;;;;;;;;11.33;11.33;;;;;12.41;53.12;101192.06;5057471;28;45756;-74
2023/03/29 03:31:14;;;;;;;;;10.00;8.00;;;;;11.75;52.80;101061.44;5053465;28;45444;-76
2023/03/29 03:33:40;;;;;;;;;8.00;8.00;;;;;12.13;53.50;101129.00;5067296;28;45417;-75
2023/03/29 03:36:07;;;;;;;;;10.00;10.00;;;;;12.46;53.44;101205.78;5056354;28;45579;-78
2023/03/29 03:38:32;;;;;;;;;9.67;9.67;;;;;12.30;53.83;101176.22;5057396;28;45881;-75
2023/03/29 03:40:59;;;;;;;;;11.33;11.00;;;;;12.17;53.68;101147.19;5051757;28;45425;-74
2023/03/29 03:43:25;;;;;;;;;11.00;10.00;;;;;12.28;53.58;101175.53;5051769;28;45230;-74
2023/03/29 03:45:51;;;;;;;;;11.00;10.33;;;;;12.36;54.05;101174.78;5035380;28;45640;-75
2023/03/29 03:48:17;;;;;;;;;11.00;9.67;;;;;12.28;53.91;101175.53;5035855;28;46544;-74
2023/03/29 03:50:56;;;;;;;;;13.33;13.33;;;;;12.25;54.42;101165.16;5036900;28;45557;-75
2023/03/29 03:53:24;;;;;;;;;9.33;9.33;;;;;12.37;54.53;101190.66;5033825;28;45363;-74
2023/03/29 03:55:56;;;;;;;;;12.67;10.33;;;;;12.25;54.57;101173.16;5037715;28;45549;-76
2023/03/29 03:58:23;;;;;;;;;10.67;9.67;;;;;11.75;54.59;101085.44;5031586;28;45659;-77
2023/03/29 04:00:50;;;;;;;;;11.33;11.00;;;;;12.15;54.78;101138.50;5027279;28;45274;-75
2023/03/29 04:03:16;;;;;;;;;11.33;10.33;;;;;12.41;54.55;101186.72;5035416;28;45488;-74
2023/03/29 04:05:44;;;;;;;;;13.00;10.00;;;;;12.32;55.13;101160.91;5031103;28;45537;-74
2023/03/29 04:08:11;;;;;;;;;10.00;9.00;;;;;11.53;54.77;101036.00;5020820;28;47923;-76
2023/03/29 04:10:38;;;;;;;;;9.67;9.67;;;;;11.50;54.59;101027.44;5035837;28;45319;-75
2023/03/29 04:13:04;;;;;;;;;7.67;7.67;;;;;12.16;55.37;101136.69;5033868;28;45549;-75
2023/03/29 04:15:31;;;;;;;;;9.00;9.00;;;;;12.45;55.47;101188.13;5032081;28;45299;-75
2023/03/29 04:17:58;;;;;;;;;10.00;10.00;;;;;11.92;54.92;101083.03;5033325;28;46289;-75
2023/03/29 04:20:24;;;;;;;;;12.00;11.00;;;;;12.49;54.92;101184.16;5035334;28;45534;-75
2023/03/29 04:22:50;;;;;;;;;10.33;10.33;;;;;12.38;55.80;101163.00;5024376;28;45597;-76
2023/03/29 04:25:15;;;;;;;;;8.67;8.67;;;;;12.07;56.00;101114.41;5017977;28;45624;-74
2023/03/29 04:27:40;;;;;;;;;11.33;10.00;;;;;12.06;55.96;101126.06;5033073;28;47864;-75
2023/03/29 04:30:06;;;;;;;;;9.33;8.67;;;;;12.12;56.52;101129.97;5035590;28;45393;-75
2023/03/29 04:32:32;;;;;;;;;9.00;8.00;;;;;12.37;56.38;101171.97;5052876;28;45342;-77
2023/03/29 04:34:57;;;;;;;;;12.33;10.00;;;;;12.19;56.18;101134.56;5033507;27;45648;-76
2023/03/29 04:37:23;;;;;;;;;10.33;9.33;;;;;12.21;56.38;101152.25;5037466;28;46646;-76
2023/03/29 04:39:49;;;;;;;;;11.33;9.67;;;;;12.46;56.56;101184.47;5021571;28;45420;-74
2023/03/29 04:42:14;;;;;;;;;10.33;9.00;;;;;12.28;55.93;101143.53;5029236;28;45259;-75
2023/03/29 04:44:42;;;;;;;;;9.00;8.00;;;;;12.14;56.23;101122.66;5038172;28;45331;-75
2023/03/29 04:47:10;;;;;;;;;11.67;9.33;;;;;12.12;56.33;101108.66;5050183;28;46052;-73
2023/03/29 04:49:36;;;;;;;;;12.00;12.00;;;;;12.05;56.80;101105.75;5053156;28;45534;-72
2023/03/29 04:52:01;;;;;;;;;9.00;7.67;;;;;12.47;56.68;101175.47;5029251;28;45595;-72
2023/03/29 04:54:26;;;;;;;;;8.00;8.00;;;;;11.86;56.36;101090.63;5048529;28;45523;-74
2023/03/29 04:56:52;;;;;;;;;10.33;9.67;;;;;12.46;56.47;101180.94;5042788;28;45485;-72
2023/03/29 04:59:17;;;;;;;;;11.67;11.67;;;;;12.47;56.61;101180.81;5052741;28;45558;-73
2023/03/29 05:01:43;;;;;;;;;13.00;10.00;;;;;12.43;57.44;101168.75;5051415;28;45651;-71
2023/03/29 05:04:09;;;;;;;;;8.33;8.33;;;;;11.57;59.11;101047.19;5051609;28;45521;-75
2023/03/29 05:06:35;;;;;;;;;10.00;9.00;;;;;12.42;61.31;101192.91;5038913;28;46801;-72
2023/03/29 05:09:01;;;;;;;;;10.00;9.00;;;;;12.40;62.27;101184.19;5060337;28;45213;-73
2023/03/29 05:11:26;;;;;;;;;8.67;8.67;;;;;12.38;62.70;101175.50;5057203;28;45187;-69
2023/03/29 05:13:54;;;;;;;;;8.33;8.33;;;;;11.99;62.92;101118.78;5057801;28;45210;-71
2023/03/29 05:16:19;;;;;;;;;10.33;9.00;;;;;12.38;63.12;101180.81;5056028;28;45487;-70
2023/03/29 05:18:45;;;;;;;;;10.00;7.00;;;;;12.24;62.67;101149.31;5032799;28;45581;-70
2023/03/29 05:21:10;;;;;;;;;13.67;8.00;;;;;12.49;62.97;101173.50;5054630;28;47809;-72
2023/03/29 05:23:36;;;;;;;;;11.33;10.33;;;;;12.06;63.03;101101.25;5041199;28;45491;-71
2023/03/29 05:26:02;;;;;;;;;9.33;9.33;;;;;11.74;62.62;101040.28;5041508;28;46337;-70
2023/03/29 05:28:28;;;;;;;;;10.67;9.67;;;;;12.14;61.34;101112.84;5053242;28;45592;-70
2023/03/29 05:31:02;;;;;;;;;10.33;10.33;;;;;12.48;60.61;101166.47;5036489;28;45275;-69
2023/03/29 05:33:29;;;;;;;;;9.33;7.33;;;;;12.51;60.61;101168.00;5036667;28;45305;-70
2023/03/29 05:36:02;;;;;;;;;11.33;10.33;;;;;12.53;60.55;101158.03;5043687;28;46594;-71
2023/03/29 05:38:28;;;;;;;;;9.00;7.67;;;;;12.39;60.45;101140.69;5056083;28;45483;-74
2023/03/29 05:40:55;;;;;;;;;9.33;9.33;;;;;12.59;60.22;101161.94;5043716;28;45464;-71
2023/03/29 05:43:20;;;;;;;;;10.00;8.67;;;;;12.15;59.99;101079.03;5056457;28;45265;-70
2023/03/29 05:45:46;;;;;;;;;12.33;10.00;;;;;12.64;59.69;101167.69;5071751;28;45612;-70
2023/03/29 05:48:12;;;;;;;;;10.33;9.00;;;;;12.64;60.45;101149.88;5054499;28;45254;-71
2023/03/29 05:50:37;;;;;;;;;11.33;9.00;;;;;12.51;60.25;101121.84;5043208;28;45468;-73
2023/03/29 05:53:02;;;;;;;;;11.33;11.33;;;;;12.68;60.36;101159.25;5038728;28;45273;-71
2023/03/29 05:55:28;;;;;;;;;11.00;11.00;;;;;12.75;60.00;101162.16;5059089;28;45527;-70
2023/03/29 05:57:54;;;;;;;;;16.33;12.67;;;;;12.55;60.37;101140.06;5038572;28;45380;-71
2023/03/29 06:00:22;;;;;;;;;8.67;8.67;;;;;11.73;60.57;100996.00;5057330;28;45454;-71
2023/03/29 06:02:52;;;;;;;;;11.00;10.00;;;;;12.80;60.62;101181.22;5046216;28;45484;-70
2023/03/29 06:05:18;;;;;;;;;13.00;13.00;;;;;12.59;61.04;101151.28;5038257;28;45830;-70
2023/03/29 06:07:45;;;;;;;;;14.00;12.33;;;;;12.12;60.28;101050.84;5036329;28;45603;-71
2023/03/29 06:10:10;;;;;;;;;18.33;15.00;;;;;12.86;60.76;101169.97;5043635;28;45581;-72
2023/03/29 06:12:36;;;;;;;;;7.00;6.67;;;;;12.86;60.86;101169.97;5056995;28;45329;-71
2023/03/29 06:15:03;;;;;;;;;10.33;10.33;;;;;12.28;61.40;101055.56;5020797;28;46642;-72
2023/03/29 06:17:30;;;;;;;;;11.00;11.00;;;;;12.69;61.41;101133.41;5050363;28;45531;-71
2023/03/29 06:19:56;;;;;;;;;11.00;9.00;;;;;12.89;61.29;101164.34;5056335;28;45494;-71
2023/03/29 06:22:22;;;;;;;;;10.33;9.00;;;;;12.03;60.97;101006.44;5055114;28;45488;-70
2023/03/29 06:24:47;;;;;;;;;8.33;8.33;;;;;12.89;61.58;101159.00;5055538;28;45491;-70
2023/03/29 06:27:13;;;;;;;;;6.00;4.00;;;;;12.49;61.84;101085.50;5056994;28;45378;-74
2023/03/29 06:29:39;;;;;;;;;8.67;8.67;;;;;12.95;61.59;101153.06;5061221;28;45583;-72
2023/03/29 06:32:04;;;;;;;;;13.00;10.67;;;;;12.65;61.46;101108.03;5060594;28;45547;-71
2023/03/29 06:34:30;;;;;;;;;17.67;17.67;;;;;12.99;61.96;101157.09;5040828;28;46787;-72
2023/03/29 06:36:55;;;;;;;;;12.00;11.33;;;;;13.02;62.18;101156.00;5059082;28;45392;-72
2023/03/29 06:39:21;;;;;;;;;14.33;10.67;;;;;12.69;61.79;101096.06;5060780;28;45246;-72
2023/03/29 06:41:46;;;;;;;;;8.00;8.00;;;;;13.10;61.99;101166.75;5052267;28;45296;-72
2023/03/29 06:44:11;;;;;;;;;9.67;9.67;;;;;12.98;61.54;101128.72;5042810;28;45424;-72
2023/03/29 06:46:37;;;;;;;;;12.33;10.67;;;;;13.15;61.64;101140.44;5067165;28;45526;-72
2023/03/29 06:49:02;;;;;;;;;13.00;11.67;;;;;12.40;61.49;101022.38;5073354;28;45534;-72
2023/03/29 06:51:28;;;;;;;;;10.67;10.67;;;;;13.15;61.26;101131.56;5059363;28;45384;-76
2023/03/29 06:53:53;;;;;;;;;11.33;9.33;;;;;13.28;60.80;101148.94;5024592;28;47252;-73
2023/03/29 06:56:19;;;;;;;;;13.67;10.67;;;;;13.35;60.44;101154.50;5032431;28;45459;-73
2023/03/29 06:58:45;;;;;;;;;13.00;13.00;;;;;13.30;60.35;101138.13;5046863;28;45490;-73
2023/03/29 07:01:11;;;;;;;;;14.33;13.33;;;;;13.46;59.90;101164.16;5079205;28;45417;-74
2023/03/29 07:03:38;;;;;;;;;17.00;11.00;;;;;13.48;59.95;101133.63;5064671;28;47831;-73
2023/03/29 07:06:08;;;;;;;;;23.33;22.67;;;;;13.54;59.64;101121.47;5074744;28;45217;-73
2023/03/29 07:08:36;;;;;;;;;22.00;18.67;;;;;13.59;59.03;101100.47;5062913;28;45279;-72
2023/03/29 07:11:02;;;;;;;;;34.00;29.67;;;;;13.87;58.66;101109.22;5056863;28;45454;-71
2023/03/29 07:13:29;;;;;;;;;15.00;15.00;;;;;14.22;58.01;101154.56;5041189;28;47065;-74
2023/03/29 07:15:54;;;;;;;;;24.00;17.00;;;;;14.39;57.57;101165.34;5062305;28;45406;-75
2023/03/29 07:18:20;;;;;;;;;25.33;17.67;;;;;14.58;57.10;101165.16;5059576;28;45492;-74
2023/03/29 07:20:57;;;;;;;;;47.00;34.33;;;;;14.89;56.24;101163.63;5061525;28;45288;-72
2023/03/29 07:23:23;;;;;;;;;13.33;11.67;;;;;15.21;55.44;101135.25;5058033;28;45424;-74
2023/03/29 07:25:49;;;;;;;;;36.67;32.00;;;;;15.88;53.47;101138.69;5052017;28;45783;-76
2023/03/29 07:28:14;;;;;;;;;60.00;48.33;;;;;16.63;51.52;101167.88;5057806;28;45436;-74
2023/03/29 07:30:39;;;;;;;;;13.00;12.00;;;;;16.92;49.86;101105.50;5060495;28;45514;-73
2023/03/29 07:33:05;;;;;;;;;12.33;11.00;;;;;17.59;48.49;101106.53;5030817;28;48460;-71
2023/03/29 07:35:31;;;;;;;;;15.67;11.67;;;;;18.17;47.51;101128.38;5066380;28;45555;-74
2023/03/29 07:37:57;;;;;;;;;10.33;10.33;;;;;19.02;46.21;101155.69;5079202;28;45276;-74
2023/03/29 07:40:24;;;;;;;;;12.33;11.00;;;;;19.34;44.37;101167.03;5079391;28;45375;-73
2023/03/29 07:42:52;;;;;;;;;32.00;30.33;;;;;19.60;44.33;101153.84;5078976;28;45729;-73
2023/03/29 07:45:22;;;;;;;;;11.67;11.33;;;;;20.00;43.22;101148.78;5078336;28;45383;-73
2023/03/29 07:47:48;;;;;;;;;38.33;25.00;;;;;20.38;42.09;101151.97;5078947;28;45261;-75
2023/03/29 07:50:15;;;;;;;;;26.33;20.33;;;;;20.70;41.76;101145.13;5060228;28;45459;-74
2023/03/29 07:52:41;;;;;;;;;16.00;16.00;;;;;21.14;41.27;101141.13;5078731;28;46412;-75
2023/03/29 07:55:09;;;;;;;;;11.33;11.33;;;;;20.98;40.38;101085.53;5074558;28;45335;-74
2023/03/29 07:57:35;;;;;;;;;13.33;11.67;;;;;19.68;40.65;100848.91;5041317;28;45572;-76
2023/03/29 08:00:09;;;;;;;;;11.00;11.00;;;;;21.61;39.71;101142.06;5042821;28;45393;-76
2023/03/29 08:02:35;;;;;;;;;52.00;40.67;;;;;21.62;39.59;101159.97;5058025;28;45710;-78
2023/03/29 08:05:00;;;;;;;;;9.00;7.33;;;;;21.60;39.86;101162.06;5057779;28;45194;-77
2023/03/29 08:07:26;;;;;;;;;10.00;9.33;;;;;21.55;39.50;101159.97;5059025;28;45337;-77
2023/03/29 08:09:51;;;;;;;;;11.00;8.00;;;;;21.50;39.85;101154.34;5058933;28;45506;-79
2023/03/29 08:12:16;;;;;;;;;16.33;12.67;;;;;21.50;39.65;101168.72;5058254;28;45276;-78
2023/03/29 08:14:42;;;;;;;;;11.33;10.00;;;;;21.37;39.76;101125.38;5059104;28;45261;-78
2023/03/29 08:17:07;;;;;;;;;10.33;10.33;;;;;21.41;39.89;101129.34;5058639;28;50130;-78
2023/03/29 08:19:32;;;;;;;;;13.67;12.00;;;;;21.61;39.52;101147.47;5058708;28;45471;-77
2023/03/29 08:21:59;;;;;;;;;9.33;9.33;;;;;21.50;39.85;101168.72;5075820;28;46272;-78
2023/03/29 08:24:25;;;;;;;;;9.00;9.00;;;;;21.14;39.88;101136.53;5061767;28;45680;-79
2023/03/29 08:26:50;;;;;;;;;14.33;12.33;;;;;20.95;41.25;101158.94;5079824;28;45497;-78
2023/03/29 08:29:16;;;;;;;;;8.67;8.00;;;;;20.68;42.28;101155.28;5062588;28;45503;-76
2023/03/29 08:31:41;;;;;;;;;35.67;27.33;;;;;20.34;42.48;101132.63;5079146;28;46626;-76
2023/03/29 08:34:07;;;;;;;;;17.67;13.33;;;;;19.80;43.37;101080.34;5058797;28;45527;-78
2023/03/29 08:36:32;;;;;;;;;11.33;10.67;;;;;19.23;43.78;101016.59;5058685;28;45512;-78
2023/03/29 08:38:58;;;;;;;;;8.00;6.00;;;;;19.45;44.54;101077.53;5040773;28;45608;-76
2023/03/29 08:41:38;;;;;;;;;3.33;3.33;;;;;19.65;45.45;101151.41;5039898;28;45421;-78
2023/03/29 08:44:20;;;;;;;;;6.67;6.67;;;;;18.83;46.58;101051.22;5056918;28;45350;-78
2023/03/29 08:47:22;;;;;;;;;17.67;14.00;;;;;19.65;46.23;101148.72;5056966;28;45393;-78
2023/03/29 08:49:53;;;;;;;;;12.33;9.00;;;;;19.18;45.93;101043.25;5057887;28;45524;-77
2023/03/29 08:52:25;;;;;;;;;12.00;8.00;;;;;20.09;45.65;101142.22;5038695;28;47101;-78
2023/03/29 08:54:54;;;;;;;;;9.33;9.33;;;;;19.76;45.31;101069.09;5057959;28;45338;-78
2023/03/29 08:57:26;;;;;;;;;8.00;7.00;;;;;19.56;45.33;100974.56;5057963;28;45470;-78
2023/03/29 08:59:56;;;;;;;;;9.00;7.00;;;;;20.66;44.70;101127.66;5040004;28;45543;-78
2023/03/29 09:02:24;;;;;;;;;8.00;8.00;;;;;20.99;44.59;101140.44;5036193;28;46381;-76
2023/03/29 09:04:55;;;;;;;;;8.67;6.00;;;;;21.16;44.15;101137.16;5025833;28;45322;-78
2023/03/29 09:07:21;;;;;;;;;10.67;6.67;;;;;21.18;43.68;101109.94;5057727;28;45504;-77
2023/03/29 09:09:47;;;;;;;;;7.33;6.00;;;;;21.35;43.25;101084.19;5039541;28;45479;-77
2023/03/29 09:12:15;;;;;;;;;6.67;6.67;;;;;21.96;42.26;101146.25;5057525;28;46834;-78
2023/03/29 09:14:52;;;;;;;;;6.00;5.33;;;;;22.25;42.29;101155.03;5057691;28;45223;-78
2023/03/29 09:17:20;;;;;;;;;26.33;19.67;;;;;22.38;42.14;101144.13;5058513;28;45233;-78
2023/03/29 09:20:20;;;;;;;;;11.00;7.33;;;;;22.66;41.25;101136.56;5057683;28;45562;-78
2023/03/29 09:22:48;;;;;;;;;6.33;5.00;;;;;22.74;41.14;101136.31;5057164;28;45996;-78
2023/03/29 09:25:13;;;;;;;;;6.00;5.00;;;;;22.70;40.98;101132.38;5056390;28;45277;-78
2023/03/29 09:27:46;;;;;;;;;5.00;4.33;;;;;22.52;41.74;101117.84;5077215;28;45399;-78
2023/03/29 09:30:31;;;;;;;;;6.00;6.00;;;;;21.97;41.07;100992.75;5077894;28;45474;-79
2023/03/29 09:33:02;;;;;;;;;5.00;4.00;;;;;22.51;40.88;101064.72;5043945;28;45529;-77
2023/03/29 09:35:37;;;;;;;;;12.67;7.33;;;;;22.43;41.91;101090.19;5057040;28;45467;-77
2023/03/29 09:38:08;;;;;;;;;8.33;6.00;;;;;22.40;42.13;101098.69;5038823;28;45551;-77
2023/03/29 09:40:41;;;;;;;;;5.67;5.67;;;;;22.44;41.96;101110.81;5057000;28;45494;-77
2023/03/29 09:43:17;;;;;;;;;5.00;5.00;;;;;22.44;42.32;101121.63;5038877;28;45391;-79
2023/03/29 09:45:50;;;;;;;;;7.00;5.67;;;;;22.45;42.53;101123.31;5058344;28;45469;-78
2023/03/29 09:48:18;;;;;;;;;7.67;7.67;;;;;21.98;42.84;101046.69;5065347;28;45350;-79
2023/03/29 09:50:47;;;;;;;;;8.67;5.33;;;;;22.67;42.51;101123.84;5078478;28;45583;-78
2023/03/29 09:53:14;;;;;;;;;6.25;5.00;;;;;22.59;42.30;101089.66;5079991;28;45538;-79
2023/03/29 09:55:42;;;;;;;;;6.33;5.67;;;;;22.67;42.62;101103.00;5079448;28;45515;-76
2023/03/29 09:58:14;;;;;;;;;4.00;4.00;;;;;22.85;42.93;101115.88;5059537;28;45475;-79
2023/03/29 10:00:39;;;;;;;;;7.00;7.00;;;;;23.12;41.56;101102.19;5053783;28;45385;-78
2023/03/29 10:03:05;;;;;;;;;6.67;6.00;;;;;22.88;41.57;101060.41;5037356;28;46538;-79
2023/03/29 10:05:35;;;;;;;;;8.00;5.33;;;;;22.94;41.26;101070.38;5040935;28;45461;-78
2023/03/29 10:08:06;;;;;;;;;6.00;6.00;;;;;22.98;41.42;101094.09;5060866;28;45443;-78
2023/03/29 10:10:34;;;;;;;;;5.67;4.67;;;;;22.55;41.99;101042.38;5045675;28;45233;-78
2023/03/29 10:13:22;;;;;;;;;6.67;5.00;;;;;22.25;42.21;101022.31;5023180;28;48148;-80
2023/03/29 10:16:21;;;;;;;;;4.00;3.00;;;;;22.72;42.82;101094.22;5045439;28;45373;-78
2023/03/29 10:18:48;;;;;;;;;5.00;5.00;;;;;20.86;42.92;100798.84;5048506;28;45536;-79
2023/03/29 10:21:16;;;;;;;;;3.00;3.00;;;;;22.29;42.80;101064.16;5082213;28;45291;-76
2023/03/29 10:23:42;;;;;;;;;5.00;5.00;;;;;22.37;42.98;101089.13;5081152;28;47840;-79
2023/03/29 10:26:25;;;;;;;;;4.33;4.33;;;;;22.02;43.23;101052.50;5081106;28;45353;-77
2023/03/29 10:28:53;;;;;;;;;5.00;3.33;;;;;21.88;43.80;101064.44;5044994;28;45495;-78
2023/03/29 10:31:21;;;;;;;;;4.33;4.33;;;;;21.67;44.41;101070.91;5066158;28;45293;-78
2023/03/29 10:33:53;;;;;;;;;7.67;6.67;;;;;21.50;44.74;101071.31;5052972;28;45821;-79
2023/03/29 10:36:19;;;;;;;;;6.33;4.00;;;;;21.41;45.01;101069.84;5060135;28;45455;-78
2023/03/29 10:38:45;;;;;;;;;5.00;4.00;;;;;21.10;44.99;101054.19;5042324;28;45406;-80
2023/03/29 10:41:13;;;;;;;;;4.00;4.00;;;;;21.04;45.09;101071.22;5043910;28;45614;-78
2023/03/29 10:43:44;;;;;;;;;6.00;6.00;;;;;20.58;45.00;101007.06;5037086;28;47126;-75
2023/03/29 10:46:18;;;;;;;;;7.67;6.33;;;;;20.80;45.28;101059.09;5056045;28;45469;-77
2023/03/29 10:48:56;;;;;;;;;4.00;4.00;;;;;20.76;44.85;101060.53;5042091;28;45387;-79
2023/03/29 10:51:23;;;;;;;;;4.00;4.00;;;;;20.67;44.75;101047.44;5062565;28;45246;-79
2023/03/29 10:53:49;;;;;;;;;5.67;4.33;;;;;19.85;43.98;100932.19;5061693;28;46836;-77
2023/03/29 10:56:31;;;;;;;;;5.00;4.00;;;;;20.52;44.22;101050.28;5057975;28;45577;-80
2023/03/29 10:59:09;;;;;;;;;2.00;2.00;;;;;20.54;42.77;101059.00;5038941;28;45646;-78
2023/03/29 11:01:44;;;;;;;;;4.67;3.67;;;;;20.45;41.99;101054.81;5059194;28;45337;-79
2023/03/29 11:04:46;;;;;;;;;2.00;2.00;;;;;20.36;40.94;101046.84;5058148;28;45957;-80
2023/03/29 11:07:31;;;;;;;;;2.00;2.00;;;;;20.44;39.49;101048.59;5039506;28;45455;-79
2023/03/29 11:10:16;;;;;;;;;13.67;12.67;;;;;20.42;39.12;101052.50;5038925;28;45827;-78
2023/03/29 11:12:59;;;;;;;;;3.00;3.00;;;;;20.43;39.36;101043.38;5054255;28;45565;-79
2023/03/29 11:15:57;;;;;;;;;4.00;2.00;;;;;20.49;39.54;101043.41;5045698;28;45821;-77
2023/03/29 11:18:44;;;;;;;;;5.33;2.00;;;;;20.50;40.35;101041.53;5005489;28;45850;-78
2023/03/29 11:24:56;;;;;;;;;5.00;3.50;;;;;20.56;40.40;101033.44;5055769;28;46155;-78
2023/03/29 11:27:37;;;;;;;;;2.00;2.00;;;;;20.57;40.07;101035.13;5059252;28;45482;-79
2023/03/29 11:30:34;;;;;;;;;4.00;3.00;;;;;20.62;39.14;101031.78;5067659;28;45249;-75